Montrose, CO

10:26 AM MDT on August 29, 2014 (GMT -0600)
Spring Creek | Change Station
CLOSE
Current Station
Personal Weather Station
Location: Montrose, CO
Elevation: 6020 ft
Nearby Weather Stations

Elev 6020 ft 38.44 °N, 107.90 °W | Updated 1 minute ago

Overcast
Overcast
61.6 °F
Feels Like 61.6 °F
N
2.0
Wind Variable Wind from West
Gusts 5.0 mph

Today
High -- | Low -- °F
--% Chance of Precip.
Yesterday
High -- | Low -- °F
Precip. -- in
6:38 AM 7:45 PM
Waxing Crescent, 15% visible
Pressure 30.09 in
Visibility 10.0 miles
Clouds Overcast 9500 ft
Dew Point 51 °F
Humidity 68%
Rainfall 0.00 in
Snow Depth Not available.
UV 1 out of 12
Pollen 9.70 out of 12
Air Quality Not available.
Flu Activity Not available.
METAR KMTJ 291553Z AUTO 00000KT 10SM OVC095 17/09 A3027 RMK AO2 SLP190 T01670094

More Conditions Fewer Conditions

Pressure 30.09 in
Visibility 10.0 miles
Clouds Overcast 9500 ft
Dew Point 51 °F
Humidity 68%
Rainfall 0.00 in
Snow Depth Not available.
UV 1 out of 12
Pollen 9.70 out of 12
Air Quality Not available.
Flu Activity Not available.
METAR KMTJ 291553Z AUTO 00000KT 10SM OVC095 17/09 A3027 RMK AO2 SLP190 T01670094

More Conditions Fewer Conditions

10-Day Weather Forecast

Almanac

Astronomy

Aug. 29, 2014 Rise Set
Actual Time 6:38 AM MDT 7:45 PM MDT
Civil Twilight 6:11 AM MDT 8:12 PM MDT
Nautical Twilight 5:38 AM MDT 8:45 PM MDT
Astronomical Twilight 5:04 AM MDT 9:19 PM MDT
Moon 10:27 AM MDT 9:48 PM MDT
Length of Visible Light 14h 01m
Length of Day
13h 07m
Tomorrow will be 2m 21s shorter.
Waxing Crescent, 15% of the Moon is Illuminated
Today
Waxing Crescent
Sep 2
First Quarter
Sep 8
Full
Sep 15
Last Quarter
Sep 24
New

Today's Extremes

State Highs State Lows

Community

WunderPhotos

Upload Photos

1,748,281 photos uploaded!

Nearby

Snow Depth

Station Depth Elevation
Columbine Pass 0 in 9400 ft
Red Mountain Pass 1 in 11150 ft
Lone Cone 2 in 9600 ft
Mineral Creek 0 in 10040 ft
Lizard Head Pass 0 in 10200 ft

Earthquake Activity

City Distance Mag. Time & Date
No recent earthquake activity has been reported nearby.
Minimum magnitude displayed is 2.5.

Coastal Water Temperatures

Place Temperature
No Stations Reporting

Nearby Weather Stations